Flight Track Log - Related Links

Times and Time Zones

All times are in EDT time to prevent confusion due to time zone crossing. See the ACA831 flight status page for this flight to view local times or setup timezone preferences in your user account.

Time Position Orientation Groundspeed Altitude Reporting Facility
EDT Latitude Longitude Course Direction KTS MPH feet Rate Location/Type
Tue 04:06:46 PM 45.4570 -73.7480 306° West 9 10  Level FlightAware ADS-B
Tue 04:07:22 PM 45.4570 -73.7500 270° West 3 3 28 Level FlightAware ADS-B
Tue 04:07:52 PM 45.4570 -73.7510 270° West 7 8 30 Level FlightAware ADS-B
Tue 04:09:01 PM 45.4590 -73.7520 341° North 12 14 31 Level FlightAware ADS-B
Tue 04:09:31 PM 45.4610 -73.7520 360° North 14 16 36 Level FlightAware ADS-B
Tue 04:10:16 PM 45.4620 -73.7500 55° Northeast 14 16 38 Level FlightAware ADS-B
Tue 04:10:41 PM 45.4620 -73.7470 90° East 18 21 42 Level FlightAware ADS-B
Tue 04:11:52 PM 45.4600 -73.7400 112° Southeast 17 20 44 Level FlightAware ADS-B
Tue 04:12:21 PM 45.4590 -73.7390 145° Southeast 9 10 54 Level FlightAware ADS-B
Tue 04:12:51 PM 45.4600 -73.7370 55° Northeast 12 14 59 Level FlightAware ADS-B
Tue 04:13:15 PM 45.4610 -73.7360 35° Northeast 14 16 65 Level FlightAware ADS-B
Tue 04:14:01 PM 45.4640 -73.7320 43° Northeast 21 24 71 Level FlightAware ADS-B
Tue 04:14:26 PM 45.4660 -73.7300 35° Northeast 24 28 87 Level FlightAware ADS-B
Tue 04:14:51 PM 45.4680 -73.7270 46° Northeast 28 32 99 Level FlightAware ADS-B
Tue 04:15:17 PM 45.4690 -73.7250 55° Northeast 21 24 115 Level FlightAware ADS-B
Tue 04:15:51 PM 45.4720 -73.7210 43° Northeast 11 13 138 Level FlightAware ADS-B
Tue 04:16:27 PM 45.4710 -73.7190 125° Southeast 11 13 188 Level FlightAware ADS-B
Tue 04:17:02 PM 45.4680 -73.7230 223° Southwest 78 90 300 Level FlightAware ADS-B
Tue 04:17:27 PM 45.4570 -73.7360 220° Southwest 156 180 300 1,846 Climbing FlightAware ADS-B
Tue 04:17:41 PM 45.4480 -73.7470 221° Southwest 153 176 1,200 3,467 Climbing FlightAware ADS-B
Tue 04:18:12 PM 45.4310 -73.7670 220° Southwest 158 182 2,900 3,103 Climbing FlightAware ADS-B
Tue 04:18:39 PM 45.4140 -73.7870 220° Southwest 190 219 4,200 2,526 Climbing FlightAware ADS-B
Tue 04:18:50 PM 45.4090 -73.8000 241° Southwest 206 237 4,500 2,323 Climbing FlightAware ADS-B
Tue 04:19:10 PM 45.4090 -73.8280 270° West 229 264 5,400 2,857 Climbing FlightAware ADS-B
Tue 04:19:32 PM 45.4080 -73.8640 268° West 242 278 6,500 1,731 Climbing FlightAware ADS-B
Tue 04:20:02 PM 45.4090 -73.9140 272° West 259 298 6,900 638 Climbing FlightAware ADS-B
Tue 04:20:19 PM 45.4090 -73.9390 270° West 260 299 7,000 136 Climbing FlightAware ADS-B
Tue 04:20:46 PM 45.4090 -73.9890 270° West 260 299 7,000  Level FlightAware ADS-B
Tue 04:21:14 PM 45.4090 -74.0370 270° West 262 302 7,000  Level FlightAware ADS-B
Tue 04:21:44 PM 45.4090 -74.0890 270° West 262 302 7,000 103 Level FlightAware ADS-B
Tue 04:22:12 PM 45.4090 -74.1380 270° West 264 304 7,100 1,245 Climbing FlightAware ADS-B
Tue 04:22:37 PM 45.4090 -74.1740 270° West 263 303 8,100 3,714 Climbing FlightAware ADS-B
Tue 04:22:54 PM 45.4090 -74.2110 270° West 267 307 9,700 4,068 Climbing FlightAware ADS-B
Tue 04:23:36 PM 45.4090 -74.2900 270° West 306 352 12,100 3,789 Climbing FlightAware ADS-B
Tue 04:24:10 PM 45.4090 -74.3560 270° West 314 361 14,500 3,571 Climbing FlightAware ADS-B
Tue 04:25:00 PM 45.4030 -74.4690 266° West 354 407 17,100 3,405 Climbing FlightAware ADS-B
Tue 04:25:24 PM 45.3940 -74.5220 256° West 360 414 18,700 3,659 Climbing FlightAware ADS-B
Tue 04:26:22 PM 45.3720 -74.6570 257° West 373 429 22,100 3,556 Climbing FlightAware ADS-B
Tue 04:27:12 PM 45.3510 -74.7790 256° West 375 432 25,100 3,409 Climbing FlightAware ADS-B
Tue 04:27:50 PM 45.3360 -74.8680 257° West 378 435 27,100 2,780 Climbing FlightAware ADS-B
Tue 04:28:34 PM 45.3170 -74.9770 256° West 389 448 28,900 2,429 Climbing FlightAware ADS-B
Tue 04:29:14 PM 45.3000 -75.0770 256° West 395 455 30,500 2,786 Climbing FlightAware ADS-B
Tue 04:29:58 PM 45.2810 -75.1860 256° West 382 440 32,800 2,250 Climbing FlightAware ADS-B
Tue 04:30:34 PM 45.2660 -75.2740 256° West 387 445 33,500 857 Climbing FlightAware ADS-B
Tue 04:31:22 PM 45.2450 -75.3910 256° West 376 433 34,000 341 Climbing FlightAware ADS-B
Tue 04:32:02 PM 45.2280 -75.4860 256° West 369 425 34,000  Level FlightAware ADS-B
Tue 04:32:47 PM 45.2110 -75.5850 256° West 370 426 34,000  Level FlightAware ADS-B
Tue 04:33:21 PM 45.1980 -75.6540 255° West 374 430 34,000  Level FlightAware ADS-B
Tue 04:34:03 PM 45.1780 -75.7670 256° West 379 436 34,000  Level FlightAware ADS-B
Tue 04:34:48 PM 45.1570 -75.8800 255° West 385 443 34,000  Level FlightAware ADS-B
Tue 04:34:59 PM 45.1530 -75.9040 257° West 386 444 34,000  Level FlightAware ADS-B
Tue 04:36:16 PM 45.1200 -76.0860 256° West 389 448 34,000  Level FlightAware ADS-B
Tue 04:37:14 PM 45.0900 -76.2330 254° West 389 448 34,000  Level FlightAware ADS-B
Tue 04:37:59 PM 45.0550 -76.3310 243° Southwest 390 449 34,000  Level FlightAware ADS-B
Tue 04:38:39 PM 45.0190 -76.4210 241° Southwest 389 448 34,000  Level FlightAware ADS-B
Tue 04:39:34 PM 44.9710 -76.5420 241° Southwest 388 447 34,000  Level FlightAware ADS-B
Tue 04:40:16 PM 44.9360 -76.6290 240° Southwest 383 441 34,000  Level FlightAware ADS-B
Tue 04:40:58 PM 44.9020 -76.7130 240° Southwest 387 445 34,000  Level FlightAware ADS-B
Tue 04:41:34 PM 44.8650 -76.8060 241° Southwest 386 444 34,000  Level FlightAware ADS-B
Tue 04:42:19 PM 44.8250 -76.9040 240° Southwest 388 447 34,000  Level FlightAware ADS-B
Tue 04:42:59 PM 44.7920 -76.9880 241° Southwest 388 447 34,000  Level FlightAware ADS-B
Tue 04:43:44 PM 44.7510 -77.0890 240° Southwest 388 447 34,000  Level FlightAware ADS-B
Tue 04:44:27 PM 44.7190 -77.1680 240° Southwest 388 447 34,000  Level FlightAware ADS-B
Tue 04:45:36 PM 44.6490 -77.3410 240° Southwest 388 447 34,000  Level FlightAware ADS-B
Tue 04:46:16 PM 44.6130 -77.4290 240° Southwest 389 448 34,000  Level FlightAware ADS-B
Tue 04:47:00 PM 44.5740 -77.5260 241° Southwest 391 450 34,000  Level FlightAware ADS-B
Tue 04:47:44 PM 44.5350 -77.6200 240° Southwest 391 450 34,000  Level FlightAware ADS-B
Tue 04:48:26 PM 44.4970 -77.7120 240° Southwest 392 451 34,000  Level FlightAware ADS-B
Tue 04:49:07 PM 44.4590 -77.8030 240° Southwest 393 452 34,000  Level FlightAware ADS-B
Tue 04:49:42 PM 44.4270 -77.8800 240° Southwest 393 452 34,000 -256 Level FlightAware ADS-B
Tue 04:51:04 PM 44.3540 -78.0540 240° Southwest 397 457 33,500 -689 Descending FlightAware ADS-B
Tue 04:51:44 PM 44.3180 -78.1380 239° Southwest 402 463 32,600 -1,425 Descending FlightAware ADS-B
Tue 04:52:24 PM 44.2780 -78.2350 240° Southwest 401 461 31,600 -1,976 Descending FlightAware ADS-B
Tue 04:53:09 PM 44.2360 -78.3350 240° Southwest 403 464 29,800 -2,612 Descending FlightAware ADS-B
Tue 04:53:49 PM 44.1970 -78.4250 239° Southwest 399 459 27,900 -2,667 Descending FlightAware ADS-B
Tue 04:54:30 PM 44.1620 -78.5090 240° Southwest 393 452 26,200 -2,589 Descending FlightAware ADS-B
Tue 04:55:24 PM 44.1120 -78.6240 239° Southwest 386 444 23,800 -2,667 Descending FlightAware ADS-B
Tue 04:56:09 PM 44.0700 -78.7240 240° Southwest 379 436 21,800 -2,400 Descending FlightAware ADS-B
Tue 04:56:54 PM 44.0290 -78.8190 239° Southwest 366 421 20,200 -2,100 Descending FlightAware ADS-B
Tue 04:57:29 PM 43.9970 -78.8870 237° Southwest 354 407 19,000 -2,625 Descending FlightAware ADS-B
Tue 04:58:14 PM 43.9580 -78.9720 238° Southwest 344 396 16,700 -1,733 Descending FlightAware ADS-B
Tue 04:58:59 PM 43.9220 -79.0500 237° Southwest 304 350 16,400 -776 Descending FlightAware ADS-B
Tue 04:59:39 PM 43.8940 -79.1130 238° Southwest 296 341 15,600 -1,341 Descending FlightAware ADS-B
Tue 05:00:24 PM 43.8600 -79.1860 237° Southwest 293 337 14,500 -1,500 Descending FlightAware ADS-B
Tue 05:00:59 PM 43.8340 -79.2420 237° Southwest 291 335 13,600 -1,500 Descending FlightAware ADS-B
Tue 05:01:44 PM 43.8020 -79.3120 238° Southwest 288 331 12,500 -1,533 Descending FlightAware ADS-B
Tue 05:02:29 PM 43.7640 -79.3760 231° Southwest 296 341 11,300 -1,482 Descending FlightAware ADS-B
Tue 05:03:09 PM 43.7200 -79.4190 215° Southwest 294 338 10,400 -1,418 Descending FlightAware ADS-B
Tue 05:03:24 PM 43.7030 -79.4350 214° Southwest 293 337 10,000 -1,200 Descending FlightAware ADS-B
Tue 05:03:49 PM 43.6760 -79.4610 215° Southwest 286 329 9,600 -1,091 Descending FlightAware ADS-B
Tue 05:04:19 PM 43.6430 -79.4930 215° Southwest 277 319 9,000 -1,400 Descending FlightAware ADS-B
Tue 05:04:49 PM 43.6120 -79.5230 215° Southwest 265 305 8,200 -1,500 Descending FlightAware ADS-B
Tue 05:04:59 PM 43.6020 -79.5330 216° Southwest 257 296 8,000 -1,350 Descending FlightAware ADS-B
Tue 05:05:29 PM 43.5780 -79.5620 221° Southwest 244 281 7,300 -1,700 Descending FlightAware ADS-B
Tue 05:05:59 PM 43.5540 -79.5970 227° Southwest 243 280 6,300 -2,182 Descending FlightAware ADS-B
Tue 05:06:24 PM 43.5330 -79.6260 225° Southwest 249 287 5,300 -2,100 Descending FlightAware ADS-B
Tue 05:06:39 PM 43.5220 -79.6430 228° Southwest 248 285 4,900 -1,650 Descending FlightAware ADS-B
Tue 05:07:04 PM 43.5020 -79.6720 226° Southwest 244 281 4,200 -1,200 Descending FlightAware ADS-B
Tue 05:07:34 PM 43.4790 -79.7040 225° Southwest 230 265 3,800 -667 Descending FlightAware ADS-B
Tue 05:07:49 PM 43.4680 -79.7200 227° Southwest 222 255 3,700 -800 Descending FlightAware ADS-B
Tue 05:08:19 PM 43.4470 -79.7500 226° Southwest 217 250 3,200 -873 Descending FlightAware ADS-B
Tue 05:08:44 PM 43.4370 -79.7800 245° Southwest 208 239 2,900 -327 Descending FlightAware ADS-B
Tue 05:09:14 PM 43.4520 -79.8080 306° West 198 228 2,900  Level FlightAware ADS-B
Tue 05:09:29 PM 43.4660 -79.8080 360° North 202 232 2,900  Level FlightAware ADS-B
Tue 05:09:44 PM 43.4790 -79.8040 13° North 206 237 2,900  Level FlightAware ADS-B
Tue 05:10:04 PM 43.4980 -79.7990 11° North 203 234 2,900  Level FlightAware ADS-B
Tue 05:10:26 PM 43.5190 -79.7880 21° North 198 228 2,900  Level FlightAware ADS-B
Tue 05:10:52 PM 43.5410 -79.7760 22° Northeast 196 226 2,900 -154 Level FlightAware ADS-B
Tue 05:11:44 PM 43.5750 -79.7330 42° Northeast 186 214 2,700 -512 Descending FlightAware ADS-B
Tue 05:12:14 PM 43.5920 -79.7090 46° Northeast 179 206 2,200 -1,000 Descending FlightAware ADS-B
Tue 05:12:44 PM 43.6090 -79.6840 47° Northeast 166 191 1,700 -900 Descending FlightAware ADS-B
Tue 05:13:14 PM 43.6230 -79.6630 47° Northeast 148 170 1,300 -750 Descending FlightAware ADS-B
Tue 05:13:40 PM 43.6340 -79.6470 46° Northeast 142 163 1,000 -387 Descending FlightAware ADS-B
Tue 05:14:16 PM 43.6490 -79.6260 45° Northeast 145 167 900 -167 Descending FlightAware ADS-B

Login

Don't have an account? Register now (free) for customized features, flight alerts, and more!